createdAt,value
2023-04-21T00:01:17.616Z,98588.97
2023-04-21T00:03:44.496Z,98583.19
2023-04-21T00:06:11.024Z,98571.13
2023-04-21T00:08:37.783Z,98576.41
2023-04-21T00:11:04.280Z,98563.00
2023-04-21T00:13:31.000Z,98565.28
2023-04-21T00:15:57.736Z,98558.38
2023-04-21T00:18:24.172Z,98558.69
2023-04-21T00:20:50.570Z,98551.06
2023-04-21T00:23:17.234Z,98545.78
2023-04-21T00:25:43.792Z,98534.41
2023-04-21T00:28:10.239Z,98536.53
2023-04-21T00:30:36.640Z,98524.31
2023-04-21T00:33:03.162Z,98528.75
2023-04-21T00:35:29.887Z,98523.34
2023-04-21T00:37:56.655Z,98520.69
2023-04-21T00:40:23.340Z,98514.41
2023-04-21T00:42:49.901Z,98508.66
2023-04-21T00:45:16.354Z,98520.88
2023-04-21T00:47:43.459Z,98506.16
2023-04-21T00:50:11.393Z,98502.84
2023-04-21T00:52:40.432Z,98507.94
2023-04-21T00:55:07.694Z,98496.34
2023-04-21T00:57:39.591Z,98501.13
2023-04-21T01:00:09.261Z,98501.81
2023-04-21T01:02:37.279Z,98503.25
2023-04-21T01:05:07.071Z,98491.88
2023-04-21T01:07:33.522Z,98480.00
2023-04-21T01:10:00.222Z,98482.00
2023-04-21T01:12:26.684Z,98479.66
2023-04-21T01:14:53.234Z,98478.84
2023-04-21T01:17:21.384Z,98477.72
2023-04-21T01:19:50.793Z,98474.25
2023-04-21T01:22:17.523Z,98470.44
2023-04-21T01:24:46.002Z,98471.88
2023-04-21T01:27:15.816Z,98464.59
2023-04-21T01:29:43.403Z,98459.50
2023-04-21T01:32:13.072Z,98463.97
2023-04-21T01:34:42.678Z,98465.75
2023-04-21T01:37:13.894Z,98470.38
2023-04-21T01:39:44.654Z,98465.88
2023-04-21T01:42:11.497Z,98467.03
2023-04-21T01:44:38.339Z,98474.31
2023-04-21T01:47:05.580Z,98472.63
2023-04-21T01:49:32.612Z,98477.25
2023-04-21T01:51:59.387Z,98468.34
2023-04-21T01:54:28.203Z,98480.22
2023-04-21T01:56:54.672Z,98484.31
2023-04-21T01:59:21.419Z,98477.84
2023-04-21T02:01:48.813Z,98470.75
2023-04-21T02:04:15.792Z,98465.78
2023-04-21T02:06:42.681Z,98469.41
2023-04-21T02:09:09.546Z,98468.28
2023-04-21T02:11:35.833Z,98474.25
2023-04-21T02:14:02.287Z,98473.38
2023-04-21T02:16:29.097Z,98473.38
2023-04-21T02:18:57.996Z,98463.06
2023-04-21T02:21:25.639Z,98459.41
2023-04-21T02:23:52.443Z,98463.56
2023-04-21T02:26:21.901Z,98466.34
2023-04-21T02:28:48.398Z,98469.97
2023-04-21T02:31:16.230Z,98472.94
2023-04-21T02:33:42.751Z,98474.44
2023-04-21T02:36:09.130Z,98477.84
2023-04-21T02:38:35.815Z,98476.56
2023-04-21T02:41:02.457Z,98480.84
2023-04-21T02:43:28.870Z,98479.47
2023-04-21T02:45:55.337Z,98476.16
2023-04-21T02:48:21.998Z,98476.84
2023-04-21T02:50:49.671Z,98477.28
2023-04-21T02:53:16.347Z,98480.28
2023-04-21T02:55:43.328Z,98482.47
2023-04-21T02:58:09.714Z,98479.84
2023-04-21T03:00:36.235Z,98475.19
2023-04-21T03:03:03.424Z,98470.72
2023-04-21T03:05:30.147Z,98454.72
2023-04-21T03:07:56.566Z,98455.41
2023-04-21T03:10:23.053Z,98454.41
2023-04-21T03:12:49.821Z,98447.81
2023-04-21T03:15:16.594Z,98431.59
2023-04-21T03:17:43.506Z,98434.94
2023-04-21T03:20:10.216Z,98441.84
2023-04-21T03:22:36.704Z,98435.59
2023-04-21T03:25:03.810Z,98438.50
2023-04-21T03:27:30.483Z,98432.25
2023-04-21T03:29:57.209Z,98441.28
2023-04-21T03:32:23.802Z,98440.09
2023-04-21T03:34:50.408Z,98436.94
2023-04-21T03:37:17.184Z,98436.13
2023-04-21T03:39:43.585Z,98429.84
2023-04-21T03:42:10.257Z,98441.91
2023-04-21T03:44:36.846Z,98431.28
2023-04-21T03:47:03.243Z,98438.00
2023-04-21T03:49:29.665Z,98440.00
2023-04-21T03:51:56.030Z,98443.41
2023-04-21T03:54:22.497Z,98443.88
2023-04-21T03:56:48.910Z,98441.25
2023-04-21T03:59:15.287Z,98444.81
2023-04-21T04:01:41.743Z,98453.41
2023-04-21T04:04:08.406Z,98454.03
2023-04-21T04:06:34.970Z,98458.66
2023-04-21T04:09:02.070Z,98462.25
2023-04-21T04:11:28.595Z,98451.06
2023-04-21T04:13:54.966Z,98448.13
2023-04-21T04:16:21.410Z,98449.28
2023-04-21T04:18:50.387Z,98450.34
2023-04-21T04:21:17.020Z,98445.72
2023-04-21T04:23:43.439Z,98449.66
2023-04-21T04:26:09.779Z,98453.50
2023-04-21T04:28:36.211Z,98442.44
2023-04-21T04:31:02.769Z,98447.09
2023-04-21T04:33:29.375Z,98445.78
2023-04-21T04:35:56.462Z,98439.81
2023-04-21T04:38:23.109Z,98442.44
2023-04-21T04:40:56.626Z,98447.84
2023-04-21T04:43:23.630Z,98457.31
2023-04-21T04:45:50.274Z,98464.56
2023-04-21T04:48:17.060Z,98477.38
2023-04-21T04:50:43.647Z,98460.22
2023-04-21T04:53:10.043Z,98450.13
2023-04-21T04:55:36.450Z,98449.63
2023-04-21T04:58:03.048Z,98449.88
2023-04-21T05:00:29.547Z,98455.16
2023-04-21T05:02:56.388Z,98462.88
2023-04-21T05:05:22.931Z,98465.16
2023-04-21T05:07:49.348Z,98458.13
2023-04-21T05:10:15.784Z,98456.66
2023-04-21T05:12:42.278Z,98460.63
2023-04-21T05:15:09.245Z,98468.16
2023-04-21T05:17:35.797Z,98471.69
2023-04-21T05:20:04.838Z,98470.09
2023-04-21T05:22:31.344Z,98472.88
2023-04-21T05:24:58.599Z,98483.72
2023-04-21T05:27:25.121Z,98498.94
2023-04-21T05:29:52.102Z,98503.81
2023-04-21T05:32:19.072Z,98521.53
2023-04-21T05:34:45.940Z,98515.59
2023-04-21T05:37:12.378Z,98511.81
2023-04-21T05:39:39.488Z,98512.34
2023-04-21T05:42:06.147Z,98495.97
2023-04-21T05:44:32.888Z,98493.31
2023-04-21T05:46:59.322Z,98485.00
2023-04-21T05:49:26.708Z,98484.94
2023-04-21T05:51:53.321Z,98490.09
2023-04-21T05:54:20.073Z,98484.88
2023-04-21T05:56:46.969Z,98479.31
2023-04-21T05:59:13.721Z,98477.34
2023-04-21T06:01:40.284Z,98461.69
2023-04-21T06:04:07.177Z,98461.88
2023-04-21T06:06:34.074Z,98467.00
2023-04-21T06:09:00.623Z,98460.53
2023-04-21T06:11:27.154Z,98459.09
2023-04-21T06:13:53.760Z,98455.63
2023-04-21T06:16:20.718Z,98456.59
2023-04-21T06:18:47.149Z,98450.19
2023-04-21T06:21:13.688Z,98462.56
2023-04-21T06:23:40.143Z,98463.22
2023-04-21T06:26:07.418Z,98471.50
2023-04-21T06:28:35.207Z,98494.13
2023-04-21T06:31:03.033Z,98489.34
2023-04-21T06:33:30.578Z,98500.59
2023-04-21T06:35:57.039Z,98512.00
2023-04-21T06:38:23.564Z,98529.03
2023-04-21T06:40:50.671Z,98566.06
2023-04-21T06:43:17.356Z,98580.78
2023-04-21T06:45:44.825Z,98578.94
2023-04-21T06:48:11.356Z,98588.03
2023-04-21T06:50:39.614Z,98588.47
2023-04-21T06:53:07.290Z,98616.16
2023-04-21T06:55:34.106Z,98660.16
2023-04-21T06:58:01.948Z,98696.75
2023-04-21T07:00:29.305Z,98705.34
2023-04-21T07:02:56.149Z,98694.75
2023-04-21T07:05:22.635Z,98724.56
2023-04-21T07:07:49.126Z,98744.41
2023-04-21T07:10:15.667Z,98764.63
2023-04-21T07:12:42.202Z,98784.50
2023-04-21T07:15:09.740Z,98813.47
2023-04-21T07:17:37.415Z,98836.19
2023-04-21T07:20:04.556Z,98821.56
2023-04-21T07:22:31.080Z,98836.13
2023-04-21T07:24:57.694Z,98850.41
2023-04-21T07:27:24.149Z,98846.44
2023-04-21T07:29:50.902Z,98845.44
2023-04-21T07:32:17.331Z,98849.75
2023-04-21T07:34:43.798Z,98840.47
2023-04-21T07:37:10.307Z,98841.09
2023-04-21T07:39:36.814Z,98846.69
2023-04-21T07:42:03.311Z,98848.31
2023-04-21T07:44:29.775Z,98856.94
2023-04-21T07:46:56.501Z,98872.19
2023-04-21T07:49:23.533Z,98899.69
2023-04-21T07:51:50.203Z,98905.94
2023-04-21T07:54:16.624Z,98910.66
2023-04-21T07:56:43.207Z,98916.31
2023-04-21T07:59:09.779Z,98926.09
2023-04-21T08:01:36.217Z,98913.78
2023-04-21T08:04:03.053Z,98926.56
2023-04-21T08:06:29.772Z,98929.50
2023-04-21T08:08:56.338Z,98928.53
2023-04-21T08:11:22.991Z,98923.00
2023-04-21T08:13:49.882Z,98919.66
2023-04-21T08:16:16.641Z,98926.41
2023-04-21T08:18:43.197Z,98913.50
2023-04-21T08:21:09.648Z,99002.41
2023-04-21T08:23:36.200Z,98936.38
2023-04-21T08:26:03.176Z,98930.34
2023-04-21T08:28:29.668Z,98883.28
2023-04-21T08:30:56.154Z,98882.34
2023-04-21T08:33:22.600Z,98889.91
2023-04-21T08:36:02.320Z,98916.72
2023-04-21T08:38:30.589Z,98935.50
2023-04-21T08:40:59.124Z,98932.31
2023-04-21T08:43:26.174Z,98848.19
2023-04-21T08:45:53.191Z,98747.00
2023-04-21T08:48:21.895Z,98745.63
2023-04-21T08:50:52.170Z,98818.25
2023-04-21T08:53:18.488Z,98826.72
2023-04-21T08:55:49.243Z,98818.16
2023-04-21T08:58:17.993Z,98746.06
2023-04-21T09:00:44.578Z,98780.81
2023-04-21T09:03:23.353Z,98761.53
2023-04-21T09:06:03.872Z,98679.88
2023-04-21T09:08:31.980Z,98637.81
2023-04-21T09:11:00.353Z,98675.72
2023-04-21T09:13:32.825Z,98670.91
2023-04-21T09:16:01.413Z,98622.66
2023-04-21T09:18:31.195Z,98612.44
2023-04-21T09:21:16.945Z,98585.91
2023-04-21T09:23:49.179Z,98582.50
2023-04-21T09:26:17.046Z,98508.25
2023-04-21T09:28:44.731Z,98561.47
2023-04-21T09:31:19.484Z,98577.00
2023-04-21T09:36:23.509Z,98557.00
2023-04-21T09:41:32.356Z,98494.22
2023-04-21T09:44:00.525Z,98461.63
2023-04-21T09:46:36.345Z,98441.47
2023-04-21T09:49:05.583Z,98409.94
2023-04-21T09:51:56.307Z,98439.00
2023-04-21T09:54:30.027Z,98432.63
2023-04-21T09:57:04.662Z,98427.94
2023-04-21T09:59:41.688Z,98437.94
2023-04-21T10:02:10.709Z,98441.53
2023-04-21T10:04:39.753Z,98453.16
2023-04-21T10:07:07.044Z,98438.25
2023-04-21T10:09:40.866Z,98434.75
2023-04-21T10:12:09.688Z,98435.84
2023-04-21T10:14:36.923Z,98425.78
2023-04-21T10:17:12.378Z,98406.63
2023-04-21T10:19:52.954Z,98395.78
2023-04-21T10:22:35.320Z,98372.47
2023-04-21T10:25:03.945Z,98353.78
2023-04-21T10:27:41.660Z,98378.28
2023-04-21T10:30:25.453Z,98399.13
2023-04-21T10:33:06.654Z,98355.84
2023-04-21T10:36:02.077Z,98346.81
2023-04-21T10:38:42.930Z,98344.13
2023-04-21T10:41:30.991Z,98316.97
2023-04-21T10:44:02.341Z,98329.66
2023-04-21T10:46:39.305Z,98327.56
2023-04-21T10:49:12.745Z,98314.59
2023-04-21T10:52:00.404Z,98303.19
2023-04-21T10:54:38.559Z,98280.91
2023-04-21T10:57:09.844Z,98278.75
2023-04-21T10:59:36.391Z,98274.72
2023-04-21T11:02:07.305Z,98270.88
2023-04-21T11:04:34.284Z,98273.56
2023-04-21T11:07:23.647Z,98260.25
2023-04-21T11:10:06.766Z,98260.19
2023-04-21T11:12:37.619Z,98248.09
2023-04-21T11:15:12.241Z,98245.34
2023-04-21T11:17:39.022Z,98243.97
2023-04-21T11:20:10.005Z,98218.63
2023-04-21T11:22:37.721Z,98211.81
2023-04-21T11:25:17.390Z,98213.81
2023-04-21T11:27:56.480Z,98217.06
2023-04-21T11:30:33.134Z,98209.44
2023-04-21T11:33:00.649Z,98207.69
2023-04-21T11:35:27.481Z,98198.28
2023-04-21T11:37:55.699Z,98191.34
2023-04-21T11:40:23.241Z,98187.97
2023-04-21T11:42:50.695Z,98190.63
2023-04-21T11:45:21.274Z,98190.53
2023-04-21T11:47:48.799Z,98191.41
2023-04-21T11:50:35.387Z,98192.56
2023-04-21T11:53:02.902Z,98195.88
2023-04-21T11:55:29.411Z,98190.53
2023-04-21T11:57:57.132Z,98190.22
2023-04-21T12:00:23.655Z,98187.19
2023-04-21T12:02:56.706Z,98181.72
2023-04-21T12:05:23.415Z,98174.28
2023-04-21T12:07:50.130Z,98178.25
2023-04-21T12:10:21.566Z,98188.66
2023-04-21T12:12:48.609Z,98187.75
2023-04-21T12:15:20.940Z,98179.81
2023-04-21T12:17:50.618Z,98177.50
2023-04-21T12:20:24.531Z,98180.84
2023-04-21T12:22:51.293Z,98180.91
2023-04-21T12:25:18.821Z,98170.84
2023-04-21T12:27:53.497Z,98169.81
2023-04-21T12:30:20.923Z,98165.78
2023-04-21T12:32:47.719Z,98158.09
2023-04-21T12:35:14.485Z,98157.66
2023-04-21T12:37:41.123Z,98149.25
2023-04-21T12:40:08.220Z,98151.19
2023-04-21T12:42:37.302Z,98149.50
2023-04-21T12:45:06.108Z,98137.88
2023-04-21T12:47:36.234Z,98141.91
2023-04-21T12:50:02.860Z,98131.81
2023-04-21T12:52:29.340Z,98131.03
2023-04-21T12:54:56.091Z,98132.91
2023-04-21T12:57:25.144Z,98136.09
2023-04-21T12:59:51.950Z,98121.09
2023-04-21T13:02:18.598Z,98123.13
2023-04-21T13:04:45.358Z,98120.31
2023-04-21T13:07:11.855Z,98128.38
2023-04-21T13:09:38.759Z,98117.69
2023-04-21T13:12:05.298Z,98117.91
2023-04-21T13:14:32.073Z,98121.84
2023-04-21T13:16:59.078Z,98116.47
2023-04-21T13:19:25.597Z,98111.34
2023-04-21T13:21:54.243Z,98107.91
2023-04-21T13:24:22.503Z,98098.13
2023-04-21T13:26:49.474Z,98109.34
2023-04-21T13:29:16.576Z,98097.38
2023-04-21T13:31:44.073Z,98103.06
2023-04-21T13:34:10.985Z,98100.88
2023-04-21T13:36:37.823Z,98095.88
2023-04-21T13:39:05.377Z,98094.75
2023-04-21T13:41:31.829Z,98097.03
2023-04-21T13:43:58.914Z,98102.94
2023-04-21T13:46:25.477Z,98089.38
2023-04-21T13:48:51.937Z,98096.63
2023-04-21T13:51:20.871Z,98091.00
2023-04-21T13:53:48.215Z,98083.59
2023-04-21T13:56:15.692Z,98083.97
2023-04-21T13:58:45.144Z,98085.63
2023-04-21T14:01:17.211Z,98079.94
2023-04-21T14:03:45.358Z,98090.19
2023-04-21T14:06:12.198Z,98078.84
2023-04-21T14:08:39.076Z,98082.94
2023-04-21T14:11:15.533Z,98075.13
2023-04-21T14:13:59.500Z,98069.41
2023-04-21T14:16:29.238Z,98077.81
2023-04-21T14:18:55.932Z,98060.78
2023-04-21T14:21:23.752Z,98060.47
2023-04-21T14:23:50.340Z,98063.19
2023-04-21T14:26:17.059Z,98059.13
2023-04-21T14:28:44.071Z,98048.81
2023-04-21T14:31:10.582Z,98035.06
2023-04-21T14:33:37.343Z,98039.94
2023-04-21T14:36:04.137Z,98038.81
2023-04-21T14:38:30.734Z,98039.91
2023-04-21T14:40:57.262Z,98023.66
2023-04-21T14:43:23.971Z,98035.56
2023-04-21T14:45:50.756Z,98030.38
2023-04-21T14:48:17.390Z,98032.31
2023-04-21T14:50:44.046Z,98025.28
2023-04-21T14:53:11.661Z,98035.25
2023-04-21T14:55:38.411Z,98026.88
2023-04-21T14:58:05.141Z,98030.72
2023-04-21T15:00:31.596Z,98022.81
2023-04-21T15:02:58.686Z,98022.75
2023-04-21T15:05:25.193Z,98010.88
2023-04-21T15:07:51.943Z,98020.13
2023-04-21T15:10:18.377Z,98015.25
2023-04-21T15:12:45.021Z,98008.47
2023-04-21T15:15:11.644Z,98017.63
2023-04-21T15:17:38.102Z,98017.88
2023-04-21T15:20:08.067Z,98006.25
2023-04-21T15:22:34.935Z,98010.69
2023-04-21T15:25:01.751Z,98002.81
2023-04-21T15:27:28.689Z,97997.38
2023-04-21T15:29:55.338Z,97999.53
2023-04-21T15:32:23.510Z,97994.13
2023-04-21T15:34:51.518Z,98007.94
2023-04-21T15:37:18.819Z,97990.56
2023-04-21T15:39:45.228Z,98000.13
2023-04-21T15:42:12.089Z,97997.97
2023-04-21T15:44:40.525Z,98000.41
2023-04-21T15:47:06.974Z,97999.63
2023-04-21T15:49:34.325Z,97990.13
2023-04-21T15:52:03.780Z,97995.00
2023-04-21T15:54:30.276Z,97994.16
2023-04-21T15:56:56.981Z,98003.41
2023-04-21T15:59:26.442Z,97999.59
2023-04-21T16:01:53.225Z,97994.47
2023-04-21T16:04:23.954Z,97991.19
2023-04-21T16:07:09.604Z,97986.59
2023-04-21T16:09:36.855Z,97979.56
2023-04-21T16:12:24.313Z,97986.06
2023-04-21T16:14:59.612Z,97984.69
2023-04-21T16:17:30.726Z,97989.25
2023-04-21T16:19:57.372Z,97986.84
2023-04-21T16:22:24.353Z,97981.44
2023-04-21T16:24:50.947Z,97981.72
2023-04-21T16:27:17.462Z,97976.03
2023-04-21T16:29:46.271Z,97982.25
2023-04-21T16:32:12.719Z,97980.75
2023-04-21T16:34:39.624Z,97980.19
2023-04-21T16:37:06.401Z,97985.59
2023-04-21T16:39:32.891Z,97990.88
2023-04-21T16:42:00.326Z,97992.72
2023-04-21T16:44:27.041Z,97999.50
2023-04-21T16:46:53.588Z,98002.22
2023-04-21T16:49:20.140Z,97994.47
2023-04-21T16:51:47.930Z,97996.94
2023-04-21T16:54:15.539Z,97994.78
2023-04-21T16:56:42.017Z,97993.94
2023-04-21T16:59:09.279Z,97998.22
2023-04-21T17:01:35.947Z,97986.81
2023-04-21T17:04:02.602Z,97998.13
2023-04-21T17:06:29.726Z,97988.94
2023-04-21T17:08:56.362Z,97989.44
2023-04-21T17:11:22.830Z,97998.00
2023-04-21T17:13:51.468Z,98000.94
2023-04-21T17:16:18.014Z,98013.00
2023-04-21T17:18:44.456Z,98024.72
2023-04-21T17:21:10.888Z,98030.06
2023-04-21T17:23:37.671Z,98027.34
2023-04-21T17:26:04.216Z,98033.81
2023-04-21T17:28:31.016Z,98035.97
2023-04-21T17:31:13.769Z,98046.13
2023-04-21T17:33:42.180Z,98047.44
2023-04-21T17:36:08.976Z,98052.59
2023-04-21T17:38:36.422Z,98058.75
2023-04-21T17:41:03.017Z,98074.28
2023-04-21T17:43:32.353Z,98081.25
2023-04-21T17:45:58.931Z,98089.03
2023-04-21T17:48:25.721Z,98102.72
2023-04-21T17:50:52.231Z,98100.53
2023-04-21T17:53:23.713Z,98113.19
2023-04-21T17:55:50.613Z,98116.31
2023-04-21T17:58:18.182Z,98123.22
2023-04-21T18:00:44.711Z,98119.19
2023-04-21T18:03:11.405Z,98115.94
2023-04-21T18:05:38.566Z,98114.59
2023-04-21T18:08:05.407Z,98110.81
2023-04-21T18:10:31.982Z,98113.25
2023-04-21T18:12:59.029Z,98124.97
2023-04-21T18:15:25.829Z,98139.75
2023-04-21T18:17:52.586Z,98145.50
2023-04-21T18:20:19.381Z,98160.88
2023-04-21T18:22:46.009Z,98175.44
2023-04-21T18:25:14.563Z,98191.63
2023-04-21T18:27:41.267Z,98214.22
2023-04-21T18:30:09.807Z,98240.16
2023-04-21T18:32:37.429Z,98279.41
2023-04-21T18:35:06.036Z,98288.81
2023-04-21T18:37:32.898Z,98326.28
2023-04-21T18:40:00.422Z,98344.91
2023-04-21T18:42:26.974Z,98354.72
2023-04-21T18:44:57.084Z,98354.94
2023-04-21T18:47:24.872Z,98367.91
2023-04-21T18:49:51.686Z,98372.78
2023-04-21T18:52:18.531Z,98384.41
2023-04-21T18:54:45.493Z,98415.56
2023-04-21T18:57:12.002Z,98437.91
2023-04-21T18:59:38.645Z,98454.84
2023-04-21T19:02:05.053Z,98485.53
2023-04-21T19:04:35.543Z,98517.31
2023-04-21T19:07:02.113Z,98518.84
2023-04-21T19:09:28.955Z,98524.13
2023-04-21T19:12:06.332Z,98530.38
2023-04-21T19:14:42.511Z,98544.94
2023-04-21T19:17:13.079Z,98576.06
2023-04-21T19:19:39.393Z,98577.44
2023-04-21T19:22:05.844Z,98592.31
2023-04-21T19:24:41.543Z,98594.19
2023-04-21T19:27:08.018Z,98567.50
2023-04-21T19:29:38.151Z,98551.66
2023-04-21T19:32:08.013Z,98527.56
2023-04-21T19:34:35.455Z,98530.97
2023-04-21T19:37:02.431Z,98528.13
2023-04-21T19:39:29.069Z,98539.97
2023-04-21T19:41:55.676Z,98523.94
2023-04-21T19:44:22.621Z,98496.13
2023-04-21T19:46:49.177Z,98568.03
2023-04-21T19:49:15.780Z,98612.06
2023-04-21T19:51:42.189Z,98642.72
2023-04-21T19:54:18.300Z,98667.91
2023-04-21T19:56:51.739Z,98688.84
2023-04-21T19:59:18.644Z,98703.13
2023-04-21T20:01:45.113Z,98729.16
2023-04-21T20:04:12.403Z,98725.50
2023-04-21T20:06:39.220Z,98726.38
2023-04-21T20:09:06.978Z,98743.09
2023-04-21T20:11:33.762Z,98772.63
2023-04-21T20:14:00.245Z,98784.84
2023-04-21T20:16:30.622Z,98780.09
2023-04-21T20:18:57.557Z,98785.88
2023-04-21T20:21:24.000Z,98796.44
2023-04-21T20:23:50.732Z,98793.75
2023-04-21T20:26:18.806Z,98806.97
2023-04-21T20:28:46.194Z,98802.66
2023-04-21T20:31:13.157Z,98782.06
2023-04-21T20:33:39.641Z,98781.47
2023-04-21T20:36:06.158Z,98776.13
2023-04-21T20:38:33.818Z,98796.31
2023-04-21T20:41:00.965Z,98818.81
2023-04-21T20:43:28.218Z,98827.44
2023-04-21T20:45:54.957Z,98847.84
2023-04-21T20:48:21.388Z,98853.41
2023-04-21T20:50:51.233Z,98849.31
2023-04-21T20:53:20.212Z,98842.50
2023-04-21T20:55:46.734Z,98875.88
2023-04-21T20:58:13.709Z,98875.88
2023-04-21T21:00:40.248Z,98887.84
2023-04-21T21:03:06.769Z,98893.19
2023-04-21T21:05:33.434Z,98899.78
2023-04-21T21:07:59.957Z,98908.47
2023-04-21T21:10:28.724Z,98909.28
2023-04-21T21:12:55.435Z,98916.50
2023-04-21T21:15:22.259Z,98925.75
2023-04-21T21:17:48.763Z,98930.06
2023-04-21T21:20:15.334Z,98936.25
2023-04-21T21:22:42.094Z,98939.97
2023-04-21T21:25:09.093Z,98954.34
2023-04-21T21:27:35.647Z,98966.06
2023-04-21T21:30:02.280Z,98964.44
2023-04-21T21:32:28.814Z,98976.19
2023-04-21T21:34:57.506Z,98972.88
2023-04-21T21:37:23.925Z,98976.38
2023-04-21T21:39:51.487Z,98963.78
2023-04-21T21:42:18.056Z,98967.09
2023-04-21T21:44:44.515Z,98971.41
2023-04-21T21:47:11.040Z,98982.69
2023-04-21T21:49:37.859Z,98980.41
2023-04-21T21:52:07.576Z,98994.41
2023-04-21T21:54:34.218Z,98994.59
2023-04-21T21:57:00.795Z,98999.72
2023-04-21T21:59:27.347Z,99003.41
2023-04-21T22:01:54.023Z,99000.31
2023-04-21T22:04:20.822Z,99014.69
2023-04-21T22:06:49.580Z,99018.19
2023-04-21T22:09:16.092Z,99025.81
2023-04-21T22:11:42.589Z,99026.47
2023-04-21T22:14:22.057Z,99022.13
2023-04-21T22:16:51.143Z,99029.13
2023-04-21T22:19:17.559Z,99028.09
2023-04-21T22:21:43.914Z,99024.19
2023-04-21T22:24:12.998Z,99043.63
2023-04-21T22:26:39.959Z,99056.00
2023-04-21T22:29:06.513Z,99049.44
2023-04-21T22:31:33.066Z,99060.31
2023-04-21T22:33:59.869Z,99064.66
2023-04-21T22:36:26.601Z,99067.31
2023-04-21T22:38:53.354Z,99063.66
2023-04-21T22:41:20.182Z,99065.28
2023-04-21T22:43:46.768Z,99062.44
2023-04-21T22:46:13.197Z,99055.25
2023-04-21T22:48:39.635Z,99054.47
2023-04-21T22:51:07.138Z,99044.97
2023-04-21T22:53:33.842Z,99046.41
2023-04-21T22:56:00.324Z,99057.28
2023-04-21T22:58:27.092Z,99054.00
2023-04-21T23:00:53.537Z,99046.94
2023-04-21T23:03:20.156Z,99055.75
2023-04-21T23:05:46.631Z,99067.88
2023-04-21T23:08:13.060Z,99068.06
2023-04-21T23:10:40.452Z,99074.84
2023-04-21T23:13:07.023Z,99084.91
2023-04-21T23:15:33.559Z,99096.63
2023-04-21T23:18:00.293Z,99095.16
2023-04-21T23:20:26.758Z,99095.38
2023-04-21T23:22:53.194Z,99107.28
2023-04-21T23:25:19.621Z,99107.44
2023-04-21T23:27:45.985Z,99121.22
2023-04-21T23:30:12.731Z,99118.75
2023-04-21T23:32:39.488Z,99126.94
2023-04-21T23:35:06.871Z,99126.13
2023-04-21T23:37:33.370Z,99124.47
2023-04-21T23:39:59.860Z,99118.47
2023-04-21T23:42:26.346Z,99118.69
2023-04-21T23:44:52.895Z,99118.69
2023-04-21T23:47:19.475Z,99126.88
2023-04-21T23:49:46.687Z,99127.47
2023-04-21T23:52:13.053Z,99126.59
2023-04-21T23:54:39.510Z,99147.59
2023-04-21T23:57:05.937Z,99143.09
2023-04-21T23:59:32.336Z,99139.50
